createdAt,value
2023-01-28T00:02:57.524Z,8.45
2023-01-28T00:08:18.241Z,9.60
2023-01-28T00:13:39.445Z,8.63
2023-01-28T00:19:00.114Z,8.85
2023-01-28T00:24:20.973Z,10.75
2023-01-28T00:29:41.581Z,9.00
2023-01-28T00:35:02.199Z,10.20
2023-01-28T00:40:22.963Z,10.10
2023-01-28T00:45:43.837Z,10.15
2023-01-28T00:51:04.918Z,10.77
2023-01-28T00:56:25.607Z,11.05
2023-01-28T01:01:46.515Z,10.85
2023-01-28T01:07:07.636Z,10.30
2023-01-28T01:12:28.718Z,11.50
2023-01-28T01:17:50.588Z,10.55
2023-01-28T01:23:12.814Z,11.77
2023-01-28T01:28:35.085Z,10.15
2023-01-28T01:33:56.091Z,11.98
2023-01-28T01:39:17.110Z,11.63
2023-01-28T01:45:00.324Z,11.13
2023-01-28T01:50:42.456Z,12.32
2023-01-28T01:56:06.802Z,10.48
2023-01-28T02:01:30.914Z,11.80
2023-01-28T02:06:52.597Z,11.85
2023-01-28T02:12:17.959Z,9.52
2023-01-28T02:17:39.221Z,10.80
2023-01-28T02:23:24.841Z,10.40
2023-01-28T02:28:52.731Z,12.07
2023-01-28T02:34:38.856Z,13.27
2023-01-28T02:40:08.957Z,14.23
2023-01-28T02:45:53.073Z,11.38
2023-01-28T02:51:41.700Z,12.18
2023-01-28T02:57:23.253Z,13.07
2023-01-28T03:08:34.185Z,14.82
2023-01-28T03:14:13.935Z,11.98
2023-01-28T03:19:53.677Z,12.10
2023-01-28T03:25:34.314Z,14.00
2023-01-28T03:31:29.092Z,13.77
2023-01-28T03:36:54.110Z,12.77
2023-01-28T03:42:40.896Z,11.00
2023-01-28T03:48:27.558Z,12.77
2023-01-28T03:53:48.553Z,12.57
2023-01-28T03:59:09.439Z,12.95
2023-01-28T04:04:32.739Z,10.90
2023-01-28T04:09:53.713Z,10.88
2023-01-28T04:15:31.059Z,10.25
2023-01-28T04:20:52.464Z,12.32
2023-01-28T04:26:13.736Z,11.43
2023-01-28T04:31:34.973Z,11.25
2023-01-28T04:37:18.672Z,7.03
2023-01-28T04:42:58.701Z,11.07
2023-01-28T04:48:40.642Z,9.55
2023-01-28T04:54:16.860Z,10.73
2023-01-28T04:59:38.351Z,10.15
2023-01-28T05:05:01.594Z,7.97
2023-01-28T05:10:50.172Z,10.75
2023-01-28T05:16:11.469Z,8.57
2023-01-28T05:21:32.156Z,9.85
2023-01-28T05:26:56.991Z,8.30
2023-01-28T05:32:18.238Z,8.57
2023-01-28T05:37:39.224Z,8.35
2023-01-28T05:43:00.632Z,7.28
2023-01-28T05:48:47.553Z,9.15
2023-01-28T05:54:28.813Z,8.93
2023-01-28T05:59:50.820Z,9.38
2023-01-28T06:05:11.539Z,9.05
2023-01-28T06:10:33.289Z,8.70
2023-01-28T06:15:54.146Z,7.65
2023-01-28T06:21:20.985Z,7.45
2023-01-28T06:26:41.748Z,7.57
2023-01-28T06:32:02.626Z,6.63
2023-01-28T06:37:26.011Z,4.80
2023-01-28T06:42:47.097Z,6.65
2023-01-28T06:48:08.881Z,6.38
2023-01-28T06:53:30.042Z,4.97
2023-01-28T06:58:51.159Z,5.68
2023-01-28T07:04:12.168Z,7.13
2023-01-28T07:09:33.034Z,6.60
2023-01-28T07:14:53.817Z,5.95
2023-01-28T07:20:16.013Z,5.32
2023-01-28T07:25:36.902Z,4.88
2023-01-28T07:30:57.985Z,6.03
2023-01-28T07:36:18.956Z,4.28
2023-01-28T07:41:39.612Z,5.15
2023-01-28T07:47:01.666Z,3.80
2023-01-28T07:52:22.848Z,5.32
2023-01-28T07:57:55.793Z,4.60
2023-01-28T08:03:16.889Z,5.28
2023-01-28T08:08:37.603Z,6.65
2023-01-28T08:13:58.217Z,6.18
2023-01-28T08:19:21.493Z,5.05
2023-01-28T08:24:42.338Z,4.75
2023-01-28T08:30:03.869Z,5.00
2023-01-28T08:35:26.046Z,3.90
2023-01-28T08:40:48.163Z,3.25
2023-01-28T08:46:09.152Z,4.57
2023-01-28T08:51:30.187Z,4.50
2023-01-28T08:56:51.696Z,4.47
2023-01-28T09:02:30.253Z,3.00
2023-01-28T09:07:51.383Z,3.10
2023-01-28T09:13:15.317Z,4.20
2023-01-28T09:18:36.192Z,3.42
2023-01-28T09:23:58.445Z,2.78
2023-01-28T09:29:19.600Z,3.22
2023-01-28T09:34:40.288Z,2.78
2023-01-28T09:40:01.153Z,3.63
2023-01-28T09:45:27.911Z,3.55
2023-01-28T09:50:54.809Z,3.05
2023-01-28T09:56:31.257Z,3.28
2023-01-28T10:02:04.373Z,2.50
2023-01-28T10:08:07.369Z,3.33
2023-01-28T10:13:37.964Z,3.60
2023-01-28T10:19:06.192Z,4.18
2023-01-28T10:24:36.720Z,3.95
2023-01-28T10:29:59.926Z,3.00
2023-01-28T10:35:22.415Z,3.80
2023-01-28T10:40:44.418Z,4.13
2023-01-28T10:46:14.531Z,3.30
2023-01-28T10:51:38.801Z,4.88
2023-01-28T10:57:04.281Z,4.47
2023-01-28T11:02:33.088Z,4.43
2023-01-28T11:08:04.057Z,3.95
2023-01-28T11:13:28.097Z,4.50
2023-01-28T11:19:05.369Z,4.35
2023-01-28T11:24:31.025Z,4.25
2023-01-28T11:29:52.723Z,3.67
2023-01-28T11:35:27.866Z,4.45
2023-01-28T11:41:06.689Z,4.47
2023-01-28T11:46:45.914Z,4.38
2023-01-28T11:52:25.624Z,5.40
2023-01-28T11:57:55.991Z,5.60
2023-01-28T12:09:11.224Z,4.05
2023-01-28T12:15:00.035Z,4.07
2023-01-28T12:20:20.934Z,3.92
2023-01-28T12:25:54.044Z,4.45
2023-01-28T12:31:45.609Z,3.40
2023-01-28T12:37:38.715Z,3.30
2023-01-28T12:43:30.090Z,3.83
2023-01-28T12:49:06.538Z,4.15
2023-01-28T12:54:58.288Z,3.67
2023-01-28T13:00:28.582Z,3.40
2023-01-28T13:06:15.541Z,3.28
2023-01-28T13:11:37.745Z,3.28
2023-01-28T13:17:27.381Z,4.03
2023-01-28T13:22:48.323Z,3.07
2023-01-28T13:28:26.690Z,3.00
2023-01-28T13:33:56.507Z,3.75
2023-01-28T13:39:26.134Z,3.38
2023-01-28T13:44:47.274Z,3.50
2023-01-28T13:50:15.184Z,3.75
2023-01-28T13:55:45.174Z,2.30
2023-01-28T14:01:50.914Z,2.72
2023-01-28T14:07:30.537Z,3.28
2023-01-28T14:13:57.459Z,2.60
2023-01-28T14:19:26.359Z,2.90
2023-01-28T14:24:48.346Z,2.97
2023-01-28T14:30:16.347Z,3.03
2023-01-28T14:35:40.373Z,3.05
2023-01-28T14:41:02.123Z,2.25
2023-01-28T14:46:35.601Z,2.72
2023-01-28T14:52:24.654Z,3.17
2023-01-28T14:57:51.303Z,2.70
2023-01-28T15:03:24.894Z,2.95
2023-01-28T15:08:46.117Z,3.45
2023-01-28T15:14:16.442Z,2.25
2023-01-28T15:19:37.925Z,2.50
2023-01-28T15:24:58.662Z,2.53
2023-01-28T15:30:28.758Z,2.35
2023-01-28T15:35:51.731Z,2.50
2023-01-28T15:41:12.649Z,2.58
2023-01-28T15:46:33.985Z,2.47
2023-01-28T15:51:55.389Z,2.28
2023-01-28T15:57:20.890Z,2.78
2023-01-28T16:02:53.128Z,2.50
2023-01-28T16:08:27.083Z,2.97
2023-01-28T16:13:47.902Z,2.53
2023-01-28T16:19:08.533Z,3.10
2023-01-28T16:24:32.946Z,3.17
2023-01-28T16:29:54.328Z,3.70
2023-01-28T16:35:21.898Z,2.92
2023-01-28T16:40:43.827Z,3.10
2023-01-28T16:46:09.169Z,3.33
2023-01-28T16:51:31.494Z,3.78
2023-01-28T16:56:52.287Z,3.88
2023-01-28T17:02:14.975Z,4.25
2023-01-28T17:07:36.095Z,2.50
2023-01-28T17:12:58.736Z,3.35
2023-01-28T17:18:20.043Z,3.00
2023-01-28T17:23:41.362Z,3.20
2023-01-28T17:29:05.358Z,2.92
2023-01-28T17:34:27.616Z,3.42
2023-01-28T17:39:48.239Z,2.90
2023-01-28T17:45:09.859Z,3.72
2023-01-28T17:50:30.752Z,5.20
2023-01-28T17:55:51.639Z,3.65
2023-01-28T18:01:12.976Z,5.57
2023-01-28T18:06:35.384Z,5.57
2023-01-28T18:11:56.680Z,4.75
2023-01-28T18:17:19.828Z,4.95
2023-01-28T18:22:42.437Z,4.25
2023-01-28T18:28:05.297Z,4.93
2023-01-28T18:33:26.621Z,5.20
2023-01-28T18:38:47.387Z,3.05
2023-01-28T18:44:09.726Z,5.10
2023-01-28T18:49:30.910Z,4.28
2023-01-28T18:54:51.938Z,3.90
2023-01-28T19:00:13.015Z,3.22
2023-01-28T19:05:38.657Z,3.67
2023-01-28T19:10:59.839Z,2.83
2023-01-28T19:16:21.834Z,3.10
2023-01-28T19:21:43.344Z,2.63
2023-01-28T19:27:04.038Z,3.30
2023-01-28T19:32:24.748Z,2.88
2023-01-28T19:37:46.773Z,3.15
2023-01-28T19:43:08.168Z,2.97
2023-01-28T19:48:29.943Z,3.60
2023-01-28T19:53:53.274Z,3.30
2023-01-28T19:59:15.135Z,3.88
2023-01-28T20:04:36.002Z,3.22
2023-01-28T20:09:57.328Z,3.70
2023-01-28T20:15:18.323Z,5.50
2023-01-28T20:20:39.111Z,3.30
2023-01-28T20:26:03.279Z,4.70
2023-01-28T20:31:24.246Z,1.80
2023-01-28T20:36:46.819Z,2.20
2023-01-28T20:42:10.192Z,3.67
2023-01-28T20:47:31.358Z,3.40
2023-01-28T20:52:52.541Z,2.88
2023-01-28T20:58:13.495Z,2.35
2023-01-28T21:03:34.440Z,3.38
2023-01-28T21:08:55.163Z,3.42
2023-01-28T21:14:17.092Z,3.15
2023-01-28T21:19:38.122Z,2.72
2023-01-28T21:24:59.159Z,2.65
2023-01-28T21:30:20.349Z,5.10
2023-01-28T21:35:45.932Z,2.97
2023-01-28T21:41:07.892Z,2.45
2023-01-28T21:46:33.009Z,3.05
2023-01-28T21:51:53.647Z,2.85
2023-01-28T21:57:14.252Z,3.30
2023-01-28T22:02:37.637Z,3.00
2023-01-28T22:07:58.349Z,3.00
2023-01-28T22:13:19.320Z,3.47
2023-01-28T22:18:40.564Z,2.28
2023-01-28T22:24:01.448Z,2.47
2023-01-28T22:29:23.508Z,2.92
2023-01-28T22:34:46.672Z,2.97
2023-01-28T22:40:08.164Z,3.35
2023-01-28T22:45:28.755Z,3.75
2023-01-28T22:50:49.572Z,3.03
2023-01-28T22:56:10.626Z,3.83
2023-01-28T23:01:33.621Z,2.38
2023-01-28T23:06:54.255Z,4.60
2023-01-28T23:12:15.199Z,4.63
2023-01-28T23:17:54.503Z,4.13
2023-01-28T23:23:35.728Z,3.92
2023-01-28T23:28:56.500Z,3.97
2023-01-28T23:34:17.489Z,3.97
2023-01-28T23:39:38.775Z,3.72
2023-01-28T23:44:59.733Z,4.03
2023-01-28T23:50:20.328Z,3.78
2023-01-28T23:55:40.981Z,3.58
